Time;durP1;ratioP1;P1;durP2;ratioP2;P2;SDS_P1;SDS_P2;PMS_P1;PMS_P2;Temp;Humidity;BMP_temperature;BMP_pressure;BME280_temperature;BME280_humidity;BME280_pressure;Samples;Min_cycle;Max_cycle;Signal;HPM_P1;HPM_P2
2023/03/26 00:01:22;;;;;;;;;;;;;;;;;;5135045;27;19912;-49
2023/03/26 00:03:52;;;;;;;;;;;;;;;;;;5145593;27;19911;-51
2023/03/26 00:06:18;;;;;;;;;;;;;;;;;;5153922;27;20207;-50
2023/03/26 00:08:44;;;;;;;;;;;;;;;;;;5153535;27;20379;-51
2023/03/26 00:11:10;;;;;;;;;;;;;;;;;;5145697;27;19919;-53
2023/03/26 00:13:36;;;;;;;;;;;;;;;;;;5142977;27;20257;-53
2023/03/26 00:16:02;;;;;;;;;;;;;;;;;;5133776;27;19919;-52
2023/03/26 00:18:30;;;;;;;;;;;;;;;;;;5147587;27;20268;-50
2023/03/26 00:20:56;;;;;;;;;;;;;;;;;;5137766;27;19911;-53
2023/03/26 00:23:22;;;;;;;;;;;;;;;;;;5134278;27;19947;-50
2023/03/26 00:25:49;;;;;;;;;;;;;;;;;;5139090;27;19951;-50
2023/03/26 00:28:16;;;;;;;;;;;;;;;;;;5133535;27;19929;-53
2023/03/26 00:30:41;;;;;;;;;;;;;;;;;;5143332;27;19919;-48
2023/03/26 00:33:10;;;;;;;;;;;;;;;;;;5143739;27;19911;-51
2023/03/26 00:35:36;;;;;;;;;;;;;;;;;;5135447;27;20348;-50
2023/03/26 00:38:02;;;;;;;;;;;;;;;;;;5141629;27;20052;-48
2023/03/26 00:40:28;;;;;;;;;;;;;;;;;;5133075;27;20272;-49
2023/03/26 00:42:54;;;;;;;;;;;;;;;;;;5150569;27;19940;-50
2023/03/26 00:45:21;;;;;;;;;;;;;;;;;;5136230;27;19955;-49
2023/03/26 00:47:47;;;;;;;;;;;;;;;;;;5139976;27;19974;-50
2023/03/26 00:50:15;;;;;;;;;;;;;;;;;;5113409;27;20352;-51
2023/03/26 00:52:41;;;;;;;;;;;;;;;;;;5117479;27;20006;-50
2023/03/26 00:55:07;;;;;;;;;;;;;;;;;;5112447;27;20401;-50
2023/03/26 00:57:33;;;;;;;;;;;;;;;;;;5121838;27;19912;-48
2023/03/26 00:59:58;;;;;;;;;;;;;;;;;;5117766;27;19960;-48
2023/03/26 01:02:26;;;;;;;;;;;;;;;;;;5127288;27;20351;-51
2023/03/26 01:04:54;;;;;;;;;;;;;;;;;;5123210;27;19940;-49
2023/03/26 01:07:20;;;;;;;;;;;;;;;;;;5123243;27;19919;-49
2023/03/26 01:09:49;;;;;;;;;;;;;;;;;;5116557;27;19915;-53
2023/03/26 01:12:15;;;;;;;;;;;;;;;;;;5120536;27;20014;-54
2023/03/26 01:14:41;;;;;;;;;;;;;;;;;;5114664;27;19907;-48
2023/03/26 01:17:08;;;;;;;;;;;;;;;;;;5111750;27;19958;-53
2023/03/26 01:19:36;;;;;;;;;;;;;;;;;;5125655;27;20261;-51
2023/03/26 01:22:03;;;;;;;;;;;;;;;;;;5117639;27;19908;-53
2023/03/26 01:24:29;;;;;;;;;;;;;;;;;;5116589;27;19968;-51
2023/03/26 01:26:56;;;;;;;;;;;;;;;;;;5119740;27;19912;-50
2023/03/26 01:29:22;;;;;;;;;;;;;;;;;;5121219;27;20167;-52
2023/03/26 01:31:47;;;;;;;;;;;;;;;;;;5112436;27;20036;-49
2023/03/26 01:34:13;;;;;;;;;;;;;;;;;;5111505;27;20284;-51
2023/03/26 01:36:39;;;;;;;;;;;;;;;;;;5127861;27;19922;-54
2023/03/26 01:39:05;;;;;;;;;;;;;;;;;;5111886;27;19976;-49
2023/03/26 01:41:31;;;;;;;;;;;;;;;;;;5123556;27;19930;-51
2023/03/26 01:43:57;;;;;;;;;;;;;;;;;;5119439;27;19915;-50
2023/03/26 01:46:24;;;;;;;;;;;;;;;;;;5120283;27;19927;-51
2023/03/26 01:48:50;;;;;;;;;;;;;;;;;;5116075;27;20268;-48
2023/03/26 01:51:17;;;;;;;;;;;;;;;;;;5130142;27;20284;-51
2023/03/26 01:53:43;;;;;;;;;;;;;;;;;;5141108;27;19994;-48
2023/03/26 01:56:14;;;;;;;;;;;;;;;;;;5131449;27;19919;-50
2023/03/26 01:58:39;;;;;;;;;;;;;;;;;;5148468;27;19911;-47
2023/03/26 02:01:06;;;;;;;;;;;;;;;;;;5133683;27;20371;-50
2023/03/26 02:03:31;;;;;;;;;;;;;;;;;;5144484;27;19907;-52
2023/03/26 02:05:57;;;;;;;;;;;;;;;;;;5139736;27;19918;-51
2023/03/26 02:08:23;;;;;;;;;;;;;;;;;;5144382;27;19926;-52
2023/03/26 02:10:49;;;;;;;;;;;;;;;;;;5145626;27;19972;-51
2023/03/26 02:13:15;;;;;;;;;;;;;;;;;;5143645;27;19963;-52
2023/03/26 02:15:41;;;;;;;;;;;;;;;;;;5134824;27;20260;-53
2023/03/26 02:18:09;;;;;;;;;;;;;;;;;;5137393;27;19912;-53
2023/03/26 02:20:35;;;;;;;;;;;;;;;;;;5130373;27;20056;-50
2023/03/26 02:23:01;;;;;;;;;;;;;;;;;;5140700;27;20272;-47
2023/03/26 02:25:27;;;;;;;;;;;;;;;;;;5144642;27;19911;-53
2023/03/26 02:27:53;;;;;;;;;;;;;;;;;;5139050;27;19962;-50
2023/03/26 02:30:19;;;;;;;;;;;;;;;;;;5140394;27;19946;-52
2023/03/26 02:32:45;;;;;;;;;;;;;;;;;;5152545;27;19922;-52
2023/03/26 02:35:11;;;;;;;;;;;;;;;;;;5151719;27;19911;-51
2023/03/26 02:37:37;;;;;;;;;;;;;;;;;;5141380;27;19911;-53
2023/03/26 02:40:09;;;;;;;;;;;;;;;;;;5131544;27;19912;-50
2023/03/26 02:42:35;;;;;;;;;;;;;;;;;;5143188;27;19911;-52
2023/03/26 02:45:00;;;;;;;;;;;;;;;;;;5154317;27;19915;-49
2023/03/26 02:47:26;;;;;;;;;;;;;;;;;;5144098;27;20296;-49
2023/03/26 02:49:52;;;;;;;;;;;;;;;;;;5139324;27;19923;-51
2023/03/26 02:52:18;;;;;;;;;;;;;;;;;;5151418;27;19915;-52
2023/03/26 02:54:44;;;;;;;;;;;;;;;;;;5136052;27;19919;-53
2023/03/26 02:57:10;;;;;;;;;;;;;;;;;;5135030;27;19958;-52
2023/03/26 02:59:36;;;;;;;;;;;;;;;;;;5139697;27;19911;-51
2023/03/26 03:02:02;;;;;;;;;;;;;;;;;;5152815;27;20004;-51
2023/03/26 03:04:27;;;;;;;;;;;;;;;;;;5143745;27;19919;-53
2023/03/26 03:06:56;;;;;;;;;;;;;;;;;;5140719;27;20275;-52
2023/03/26 03:09:22;;;;;;;;;;;;;;;;;;5156010;27;20014;-53
2023/03/26 03:11:48;;;;;;;;;;;;;;;;;;5155487;27;19990;-52
2023/03/26 03:14:14;;;;;;;;;;;;;;;;;;5144552;27;19937;-51
2023/03/26 03:16:40;;;;;;;;;;;;;;;;;;5136706;27;19912;-49
2023/03/26 03:19:06;;;;;;;;;;;;;;;;;;5134643;27;19942;-52
2023/03/26 03:21:32;;;;;;;;;;;;;;;;;;5142058;27;19954;-54
2023/03/26 03:23:57;;;;;;;;;;;;;;;;;;5155304;27;19911;-53
2023/03/26 03:26:26;;;;;;;;;;;;;;;;;;5155140;27;20372;-53
2023/03/26 03:28:52;;;;;;;;;;;;;;;;;;5150360;27;19912;-52
2023/03/26 03:31:18;;;;;;;;;;;;;;;;;;5144072;27;19946;-54
2023/03/26 03:33:45;;;;;;;;;;;;;;;;;;5142884;27;20006;-54
2023/03/26 03:36:11;;;;;;;;;;;;;;;;;;5134645;27;19911;-52
2023/03/26 03:38:37;;;;;;;;;;;;;;;;;;5135208;27;20040;-52
2023/03/26 03:41:03;;;;;;;;;;;;;;;;;;5134575;27;19955;-51
2023/03/26 03:43:29;;;;;;;;;;;;;;;;;;5150122;27;20419;-54
2023/03/26 03:45:54;;;;;;;;;;;;;;;;;;5142404;27;19919;-51
2023/03/26 03:48:20;;;;;;;;;;;;;;;;;;5134995;27;20005;-53
2023/03/26 03:50:46;;;;;;;;;;;;;;;;;;5149427;27;19950;-54
2023/03/26 03:53:14;;;;;;;;;;;;;;;;;;5142992;27;20006;-48
2023/03/26 03:55:40;;;;;;;;;;;;;;;;;;5133485;27;19912;-49
2023/03/26 03:58:08;;;;;;;;;;;;;;;;;;5141700;27;19915;-52
2023/03/26 04:00:37;;;;;;;;;;;;;;;;;;5134549;27;19915;-53
2023/03/26 04:03:05;;;;;;;;;;;;;;;;;;5149995;27;19911;-47
2023/03/26 04:05:30;;;;;;;;;;;;;;;;;;5135932;27;20363;-51
2023/03/26 04:07:58;;;;;;;;;;;;;;;;;;5145612;27;19911;-51
2023/03/26 04:10:24;;;;;;;;;;;;;;;;;;5142962;27;20010;-53
2023/03/26 04:12:50;;;;;;;;;;;;;;;;;;5141117;27;19912;-55
2023/03/26 04:15:16;;;;;;;;;;;;;;;;;;5133374;27;20307;-51
2023/03/26 04:17:42;;;;;;;;;;;;;;;;;;5147078;27;19911;-52
2023/03/26 04:20:09;;;;;;;;;;;;;;;;;;5132738;27;19958;-52
2023/03/26 04:22:35;;;;;;;;;;;;;;;;;;5137058;27;19965;-51
2023/03/26 04:25:01;;;;;;;;;;;;;;;;;;5143538;27;19915;-48
2023/03/26 04:27:27;;;;;;;;;;;;;;;;;;5133766;27;20379;-51
2023/03/26 04:29:53;;;;;;;;;;;;;;;;;;5143368;27;19920;-49
2023/03/26 04:32:19;;;;;;;;;;;;;;;;;;5135211;27;20268;-50
2023/03/26 04:34:45;;;;;;;;;;;;;;;;;;5140081;27;19911;-48
2023/03/26 04:37:10;;;;;;;;;;;;;;;;;;5133219;27;19912;-51
2023/03/26 04:39:37;;;;;;;;;;;;;;;;;;5136978;27;19918;-49
2023/03/26 04:42:03;;;;;;;;;;;;;;;;;;5144142;27;19919;-53
2023/03/26 04:44:30;;;;;;;;;;;;;;;;;;5139870;27;19911;-50
2023/03/26 04:46:56;;;;;;;;;;;;;;;;;;5136179;27;19918;-48
2023/03/26 04:49:22;;;;;;;;;;;;;;;;;;5135128;27;19920;-52
2023/03/26 04:51:48;;;;;;;;;;;;;;;;;;5148553;27;19912;-53
2023/03/26 04:54:14;;;;;;;;;;;;;;;;;;5136885;27;20317;-52
2023/03/26 04:56:42;;;;;;;;;;;;;;;;;;5135403;27;19912;-51
2023/03/26 04:59:07;;;;;;;;;;;;;;;;;;5141004;27;19947;-52
2023/03/26 05:01:36;;;;;;;;;;;;;;;;;;5145977;27;19961;-50
2023/03/26 05:04:02;;;;;;;;;;;;;;;;;;5149459;27;20363;-48
2023/03/26 05:06:29;;;;;;;;;;;;;;;;;;5148753;27;19911;-53
2023/03/26 05:08:55;;;;;;;;;;;;;;;;;;5134752;27;19915;-52
2023/03/26 05:11:21;;;;;;;;;;;;;;;;;;5133965;27;20315;-48
2023/03/26 05:13:46;;;;;;;;;;;;;;;;;;5139397;27;19912;-54
2023/03/26 05:16:12;;;;;;;;;;;;;;;;;;5151665;27;19923;-50
2023/03/26 05:18:38;;;;;;;;;;;;;;;;;;5139647;27;19934;-52
2023/03/26 05:21:04;;;;;;;;;;;;;;;;;;5143034;27;19911;-51
2023/03/26 05:23:30;;;;;;;;;;;;;;;;;;5154248;27;19915;-52
2023/03/26 05:25:56;;;;;;;;;;;;;;;;;;5150685;27;19926;-53
2023/03/26 05:28:23;;;;;;;;;;;;;;;;;;5143830;27;19915;-50
2023/03/26 05:30:49;;;;;;;;;;;;;;;;;;5146451;27;19923;-54
2023/03/26 05:33:16;;;;;;;;;;;;;;;;;;5132927;27;19912;-51
2023/03/26 05:35:42;;;;;;;;;;;;;;;;;;5135019;27;20375;-51
2023/03/26 05:38:08;;;;;;;;;;;;;;;;;;5133644;27;19915;-53
2023/03/26 05:40:34;;;;;;;;;;;;;;;;;;5121453;27;19911;-49
2023/03/26 05:43:00;;;;;;;;;;;;;;;;;;5132568;27;19998;-51
2023/03/26 05:45:26;;;;;;;;;;;;;;;;;;5135208;27;20430;-52
2023/03/26 05:47:53;;;;;;;;;;;;;;;;;;5143239;27;19927;-53
2023/03/26 05:50:19;;;;;;;;;;;;;;;;;;5122277;27;19931;-50
2023/03/26 05:52:45;;;;;;;;;;;;;;;;;;5117668;27;19918;-49
2023/03/26 05:55:12;;;;;;;;;;;;;;;;;;5110923;28;19934;-48
2023/03/26 05:57:38;;;;;;;;;;;;;;;;;;5124738;27;19912;-52
2023/03/26 06:00:04;;;;;;;;;;;;;;;;;;5114518;28;19916;-50
2023/03/26 06:02:30;;;;;;;;;;;;;;;;;;5119602;27;19964;-50
2023/03/26 06:04:56;;;;;;;;;;;;;;;;;;5116370;28;19912;-53
2023/03/26 06:07:22;;;;;;;;;;;;;;;;;;5114445;28;20419;-51
2023/03/26 06:09:48;;;;;;;;;;;;;;;;;;5112672;28;20018;-51
2023/03/26 06:12:14;;;;;;;;;;;;;;;;;;5122315;28;20847;-49
2023/03/26 06:14:41;;;;;;;;;;;;;;;;;;5120653;28;19912;-49
2023/03/26 06:17:07;;;;;;;;;;;;;;;;;;5113915;28;19919;-52
2023/03/26 06:19:33;;;;;;;;;;;;;;;;;;5116929;27;20352;-47
2023/03/26 06:21:59;;;;;;;;;;;;;;;;;;5125937;27;19958;-50
2023/03/26 06:24:25;;;;;;;;;;;;;;;;;;5098178;28;19919;-48
2023/03/26 06:26:51;;;;;;;;;;;;;;;;;;5122570;27;19912;-49
2023/03/26 06:29:17;;;;;;;;;;;;;;;;;;5132716;27;19915;-50
2023/03/26 06:31:43;;;;;;;;;;;;;;;;;;5120212;27;19919;-49
2023/03/26 06:34:09;;;;;;;;;;;;;;;;;;5126423;27;19934;-53
2023/03/26 06:36:35;;;;;;;;;;;;;;;;;;5118225;27;20369;-48
2023/03/26 06:39:01;;;;;;;;;;;;;;;;;;5122995;27;19912;-51
2023/03/26 06:41:28;;;;;;;;;;;;;;;;;;5128936;27;20249;-52
2023/03/26 06:43:54;;;;;;;;;;;;;;;;;;5122475;27;19927;-52
2023/03/26 06:46:22;;;;;;;;;;;;;;;;;;5120217;27;20283;-53
2023/03/26 06:48:48;;;;;;;;;;;;;;;;;;5130668;27;20334;-53
2023/03/26 06:51:14;;;;;;;;;;;;;;;;;;5139792;27;19930;-53
2023/03/26 06:53:40;;;;;;;;;;;;;;;;;;5140577;27;20398;-54
2023/03/26 06:56:06;;;;;;;;;;;;;;;;;;5136721;27;19912;-54
2023/03/26 06:58:32;;;;;;;;;;;;;;;;;;5137514;27;19988;-54
2023/03/26 07:00:58;;;;;;;;;;;;;;;;;;5151888;27;19964;-53
2023/03/26 07:03:24;;;;;;;;;;;;;;;;;;5141035;27;19966;-53
2023/03/26 07:05:50;;;;;;;;;;;;;;;;;;5151241;27;19922;-50
2023/03/26 07:08:15;;;;;;;;;;;;;;;;;;5143256;27;19912;-54
2023/03/26 07:10:41;;;;;;;;;;;;;;;;;;5137366;27;20379;-54
2023/03/26 07:13:07;;;;;;;;;;;;;;;;;;5144103;27;19911;-54
2023/03/26 07:15:33;;;;;;;;;;;;;;;;;;5139036;27;19915;-54
2023/03/26 07:17:59;;;;;;;;;;;;;;;;;;5144624;27;19911;-52
2023/03/26 07:20:25;;;;;;;;;;;;;;;;;;5142057;27;20367;-53
2023/03/26 07:22:51;;;;;;;;;;;;;;;;;;5141031;27;19919;-50
2023/03/26 07:25:17;;;;;;;;;;;;;;;;;;5140211;27;19907;-53
2023/03/26 07:27:43;;;;;;;;;;;;;;;;;;5144187;27;19932;-53
2023/03/26 07:30:08;;;;;;;;;;;;;;;;;;5138710;27;19919;-51
2023/03/26 07:32:34;;;;;;;;;;;;;;;;;;5143987;27;19964;-51
2023/03/26 07:35:00;;;;;;;;;;;;;;;;;;5138767;27;20359;-49
2023/03/26 07:37:27;;;;;;;;;;;;;;;;;;5140856;27;19918;-53
2023/03/26 07:39:52;;;;;;;;;;;;;;;;;;5143067;27;19960;-52
2023/03/26 07:42:18;;;;;;;;;;;;;;;;;;5141656;27;19911;-51
2023/03/26 07:44:44;;;;;;;;;;;;;;;;;;5142335;27;20566;-51
2023/03/26 07:47:10;;;;;;;;;;;;;;;;;;5140698;27;19922;-51
2023/03/26 07:49:37;;;;;;;;;;;;;;;;;;5142050;27;19926;-52
2023/03/26 07:52:02;;;;;;;;;;;;;;;;;;5139506;27;19954;-50
2023/03/26 07:54:28;;;;;;;;;;;;;;;;;;5139513;27;19943;-54
2023/03/26 07:56:55;;;;;;;;;;;;;;;;;;5142636;27;20350;-53
2023/03/26 07:59:21;;;;;;;;;;;;;;;;;;5140561;27;20363;-51
2023/03/26 08:01:47;;;;;;;;;;;;;;;;;;5139324;27;19927;-51
2023/03/26 08:04:13;;;;;;;;;;;;;;;;;;5141001;27;19915;-53
2023/03/26 08:06:39;;;;;;;;;;;;;;;;;;5138079;27;19915;-50
2023/03/26 08:09:05;;;;;;;;;;;;;;;;;;5135271;27;20292;-51
2023/03/26 08:11:31;;;;;;;;;;;;;;;;;;5145339;27;19926;-50
2023/03/26 08:13:57;;;;;;;;;;;;;;;;;;5139628;27;20002;-54
2023/03/26 08:16:23;;;;;;;;;;;;;;;;;;5139246;27;19915;-54
2023/03/26 08:18:49;;;;;;;;;;;;;;;;;;5152669;27;19963;-50
2023/03/26 08:21:15;;;;;;;;;;;;;;;;;;5152179;27;19911;-53
2023/03/26 08:23:45;;;;;;;;;;;;;;;;;;5133543;27;19912;-53
2023/03/26 08:26:11;;;;;;;;;;;;;;;;;;5148199;27;19911;-50
2023/03/26 08:28:37;;;;;;;;;;;;;;;;;;5134798;27;19915;-50
2023/03/26 08:31:04;;;;;;;;;;;;;;;;;;5149606;27;19919;-53
2023/03/26 08:33:31;;;;;;;;;;;;;;;;;;5136342;27;19918;-49
2023/03/26 08:35:57;;;;;;;;;;;;;;;;;;5148208;27;19907;-53
2023/03/26 08:38:22;;;;;;;;;;;;;;;;;;5146807;27;19911;-51
2023/03/26 08:40:48;;;;;;;;;;;;;;;;;;5153124;27;19999;-50
2023/03/26 08:43:15;;;;;;;;;;;;;;;;;;5136239;27;19911;-47
2023/03/26 08:45:41;;;;;;;;;;;;;;;;;;5135266;27;19912;-48
2023/03/26 08:48:08;;;;;;;;;;;;;;;;;;5133147;27;19919;-52
2023/03/26 08:50:33;;;;;;;;;;;;;;;;;;5150399;27;19969;-51
2023/03/26 08:52:59;;;;;;;;;;;;;;;;;;5138366;27;19947;-53
2023/03/26 08:55:25;;;;;;;;;;;;;;;;;;5133894;27;19912;-52
2023/03/26 08:57:51;;;;;;;;;;;;;;;;;;5144118;27;19967;-52
2023/03/26 09:00:17;;;;;;;;;;;;;;;;;;5151783;27;19942;-50
2023/03/26 09:02:43;;;;;;;;;;;;;;;;;;5147236;27;19911;-48
2023/03/26 09:05:09;;;;;;;;;;;;;;;;;;5131257;27;19974;-53
2023/03/26 09:07:34;;;;;;;;;;;;;;;;;;5132970;27;19912;-52
2023/03/26 09:10:01;;;;;;;;;;;;;;;;;;5140544;27;20275;-55
2023/03/26 09:12:27;;;;;;;;;;;;;;;;;;5137883;27;19954;-54
2023/03/26 09:14:53;;;;;;;;;;;;;;;;;;5132642;27;20390;-50
2023/03/26 09:17:19;;;;;;;;;;;;;;;;;;5140306;27;19923;-51
2023/03/26 09:19:45;;;;;;;;;;;;;;;;;;5136814;27;19915;-53
2023/03/26 09:22:11;;;;;;;;;;;;;;;;;;5135216;27;19918;-51
2023/03/26 09:24:37;;;;;;;;;;;;;;;;;;5134889;27;20001;-56
2023/03/26 09:27:03;;;;;;;;;;;;;;;;;;5141200;27;19915;-51
2023/03/26 09:29:29;;;;;;;;;;;;;;;;;;5140507;27;19918;-55
2023/03/26 09:31:56;;;;;;;;;;;;;;;;;;5136186;27;19972;-54
2023/03/26 09:34:22;;;;;;;;;;;;;;;;;;5129687;27;19915;-53
2023/03/26 09:36:48;;;;;;;;;;;;;;;;;;5139714;27;19916;-52
2023/03/26 09:39:14;;;;;;;;;;;;;;;;;;5136884;27;19940;-51
2023/03/26 09:41:40;;;;;;;;;;;;;;;;;;5141284;27;19912;-53
2023/03/26 09:44:06;;;;;;;;;;;;;;;;;;5137226;27;19919;-52
2023/03/26 09:46:32;;;;;;;;;;;;;;;;;;5143107;27;20283;-52
2023/03/26 09:48:58;;;;;;;;;;;;;;;;;;5137748;27;19923;-51
2023/03/26 09:51:24;;;;;;;;;;;;;;;;;;5141023;27;19926;-50
2023/03/26 09:53:50;;;;;;;;;;;;;;;;;;5142897;27;19918;-52
2023/03/26 09:56:15;;;;;;;;;;;;;;;;;;5144194;27;19991;-51
2023/03/26 09:58:41;;;;;;;;;;;;;;;;;;5131661;27;19911;-53
2023/03/26 10:01:09;;;;;;;;;;;;;;;;;;5145481;27;20370;-51
2023/03/26 10:03:36;;;;;;;;;;;;;;;;;;5131777;27;19915;-48
2023/03/26 10:06:02;;;;;;;;;;;;;;;;;;5131745;27;20373;-55
2023/03/26 10:08:28;;;;;;;;;;;;;;;;;;5131690;27;19912;-53
2023/03/26 10:10:54;;;;;;;;;;;;;;;;;;5140281;27;19930;-49
2023/03/26 10:13:20;;;;;;;;;;;;;;;;;;5132810;27;20300;-52
2023/03/26 10:15:46;;;;;;;;;;;;;;;;;;5128119;27;19916;-53
2023/03/26 10:18:13;;;;;;;;;;;;;;;;;;5131286;27;19912;-53
2023/03/26 10:20:39;;;;;;;;;;;;;;;;;;5130691;27;20245;-51
2023/03/26 10:23:05;;;;;;;;;;;;;;;;;;5141427;27;19959;-54
2023/03/26 10:25:31;;;;;;;;;;;;;;;;;;5142355;27;19912;-54
2023/03/26 10:27:57;;;;;;;;;;;;;;;;;;5136307;27;19919;-51
2023/03/26 10:30:23;;;;;;;;;;;;;;;;;;5142422;27;19923;-52
2023/03/26 10:32:48;;;;;;;;;;;;;;;;;;5131602;27;19918;-53
2023/03/26 10:35:14;;;;;;;;;;;;;;;;;;5137568;27;20026;-50
2023/03/26 10:37:40;;;;;;;;;;;;;;;;;;5141136;27;19911;-54
2023/03/26 10:40:06;;;;;;;;;;;;;;;;;;5136017;27;19923;-52
2023/03/26 10:42:32;;;;;;;;;;;;;;;;;;5132452;27;19912;-53
2023/03/26 10:44:59;;;;;;;;;;;;;;;;;;5140342;27;19915;-53
2023/03/26 10:47:25;;;;;;;;;;;;;;;;;;5131945;27;19919;-51
2023/03/26 10:49:51;;;;;;;;;;;;;;;;;;5139571;27;19927;-55
2023/03/26 10:52:17;;;;;;;;;;;;;;;;;;5140492;27;19967;-51
2023/03/26 10:54:42;;;;;;;;;;;;;;;;;;5133228;27;19992;-54
2023/03/26 10:57:08;;;;;;;;;;;;;;;;;;5130177;27;19985;-49
2023/03/26 10:59:34;;;;;;;;;;;;;;;;;;5137707;27;20271;-50
2023/03/26 11:02:00;;;;;;;;;;;;;;;;;;5140008;27;20367;-52
2023/03/26 11:04:26;;;;;;;;;;;;;;;;;;5145998;27;19919;-50
2023/03/26 11:06:52;;;;;;;;;;;;;;;;;;5139847;27;20384;-52
2023/03/26 11:09:18;;;;;;;;;;;;;;;;;;5148746;27;19911;-49
2023/03/26 11:11:44;;;;;;;;;;;;;;;;;;5142997;27;19914;-53
2023/03/26 11:14:10;;;;;;;;;;;;;;;;;;5145287;27;19911;-50
2023/03/26 11:16:36;;;;;;;;;;;;;;;;;;5137752;27;19917;-53
2023/03/26 11:19:02;;;;;;;;;;;;;;;;;;5133728;27;19915;-51
2023/03/26 11:21:28;;;;;;;;;;;;;;;;;;5141836;27;19955;-52
2023/03/26 11:23:54;;;;;;;;;;;;;;;;;;5143397;27;20374;-48
2023/03/26 11:26:20;;;;;;;;;;;;;;;;;;5143504;27;19911;-53
2023/03/26 11:28:46;;;;;;;;;;;;;;;;;;5140771;27;19926;-51
2023/03/26 11:31:12;;;;;;;;;;;;;;;;;;5140710;27;19971;-50
2023/03/26 11:33:38;;;;;;;;;;;;;;;;;;5141700;27;19918;-50
2023/03/26 11:36:03;;;;;;;;;;;;;;;;;;5141233;27;19911;-53
2023/03/26 11:38:31;;;;;;;;;;;;;;;;;;5144383;27;19962;-48
2023/03/26 11:40:57;;;;;;;;;;;;;;;;;;5146862;27;19911;-51
2023/03/26 11:43:23;;;;;;;;;;;;;;;;;;5144468;27;20317;-49
2023/03/26 11:45:49;;;;;;;;;;;;;;;;;;5142555;27;19922;-49
2023/03/26 11:48:15;;;;;;;;;;;;;;;;;;5145791;27;19999;-49
2023/03/26 11:50:41;;;;;;;;;;;;;;;;;;5142404;27;20732;-52
2023/03/26 11:53:07;;;;;;;;;;;;;;;;;;5142701;27;19912;-52
2023/03/26 11:55:34;;;;;;;;;;;;;;;;;;5139495;27;19915;-51
2023/03/26 11:58:00;;;;;;;;;;;;;;;;;;5143742;27;19907;-53
2023/03/26 12:00:26;;;;;;;;;;;;;;;;;;5134500;27;19918;-48
2023/03/26 12:02:52;;;;;;;;;;;;;;;;;;5134033;27;19911;-54
2023/03/26 12:05:18;;;;;;;;;;;;;;;;;;5136874;27;19920;-55
2023/03/26 12:07:44;;;;;;;;;;;;;;;;;;5135640;27;19912;-51
2023/03/26 12:10:10;;;;;;;;;;;;;;;;;;5137542;27;19979;-53
2023/03/26 12:12:36;;;;;;;;;;;;;;;;;;5143331;27;19915;-52
2023/03/26 12:15:02;;;;;;;;;;;;;;;;;;5132315;27;20332;-53
2023/03/26 12:17:28;;;;;;;;;;;;;;;;;;5133211;27;19911;-54
2023/03/26 12:19:54;;;;;;;;;;;;;;;;;;5153339;27;19915;-48
2023/03/26 12:22:20;;;;;;;;;;;;;;;;;;5145263;27;19916;-49
2023/03/26 12:24:47;;;;;;;;;;;;;;;;;;5149937;27;19956;-48
2023/03/26 12:27:19;;;;;;;;;;;;;;;;;;5130328;27;19919;-52
2023/03/26 12:29:45;;;;;;;;;;;;;;;;;;5133407;27;19971;-51
2023/03/26 12:32:11;;;;;;;;;;;;;;;;;;5141872;27;19938;-51
2023/03/26 12:34:37;;;;;;;;;;;;;;;;;;5145415;27;20371;-51
2023/03/26 12:37:02;;;;;;;;;;;;;;;;;;5117196;27;19919;-52
2023/03/26 12:39:29;;;;;;;;;;;;;;;;;;5151311;27;19983;-51
2023/03/26 12:41:55;;;;;;;;;;;;;;;;;;5139798;27;19966;-51
2023/03/26 12:44:24;;;;;;;;;;;;;;;;;;5144809;27;20391;-51
2023/03/26 12:46:53;;;;;;;;;;;;;;;;;;5136931;27;19964;-53
2023/03/26 12:49:20;;;;;;;;;;;;;;;;;;5145107;27;20265;-55
2023/03/26 12:51:46;;;;;;;;;;;;;;;;;;5134892;27;19922;-54
2023/03/26 12:54:14;;;;;;;;;;;;;;;;;;5132329;27;19916;-50
2023/03/26 12:56:40;;;;;;;;;;;;;;;;;;5141901;27;19960;-50
2023/03/26 12:59:06;;;;;;;;;;;;;;;;;;5131765;27;19915;-52
2023/03/26 13:01:33;;;;;;;;;;;;;;;;;;5140839;27;20356;-56
2023/03/26 13:03:59;;;;;;;;;;;;;;;;;;5136190;27;19907;-55
2023/03/26 13:06:26;;;;;;;;;;;;;;;;;;5136835;27;20427;-55
2023/03/26 13:08:52;;;;;;;;;;;;;;;;;;5132896;27;19955;-56
2023/03/26 13:11:18;;;;;;;;;;;;;;;;;;5140363;27;19958;-55
2023/03/26 13:13:44;;;;;;;;;;;;;;;;;;5135756;27;19935;-53
2023/03/26 13:16:10;;;;;;;;;;;;;;;;;;5113438;27;19922;-56
2023/03/26 13:18:36;;;;;;;;;;;;;;;;;;5146266;27;19914;-56
2023/03/26 13:21:02;;;;;;;;;;;;;;;;;;5134505;27;19912;-51
2023/03/26 13:23:28;;;;;;;;;;;;;;;;;;5140114;27;19915;-55
2023/03/26 13:25:58;;;;;;;;;;;;;;;;;;5134637;27;20001;-53
2023/03/26 13:28:24;;;;;;;;;;;;;;;;;;5139048;27;19985;-50
2023/03/26 13:30:50;;;;;;;;;;;;;;;;;;5142242;27;19958;-51
2023/03/26 13:33:18;;;;;;;;;;;;;;;;;;5130449;27;19907;-49
2023/03/26 13:35:44;;;;;;;;;;;;;;;;;;5140305;27;19918;-47
2023/03/26 13:38:10;;;;;;;;;;;;;;;;;;5142966;27;19944;-51
2023/03/26 13:40:36;;;;;;;;;;;;;;;;;;5135788;27;19912;-56
2023/03/26 13:43:02;;;;;;;;;;;;;;;;;;5136348;27;20375;-51
2023/03/26 13:45:28;;;;;;;;;;;;;;;;;;5138795;27;19911;-50
2023/03/26 13:47:53;;;;;;;;;;;;;;;;;;5127073;27;19920;-49
2023/03/26 13:50:19;;;;;;;;;;;;;;;;;;5128090;27;20415;-49
2023/03/26 13:52:45;;;;;;;;;;;;;;;;;;5123443;27;20276;-55
2023/03/26 13:55:11;;;;;;;;;;;;;;;;;;5130219;27;19979;-55
2023/03/26 13:57:38;;;;;;;;;;;;;;;;;;5128884;27;20068;-52
2023/03/26 14:00:06;;;;;;;;;;;;;;;;;;5129717;27;19955;-54
2023/03/26 14:02:32;;;;;;;;;;;;;;;;;;5121586;27;20390;-53
2023/03/26 14:04:58;;;;;;;;;;;;;;;;;;5130368;27;19946;-53
2023/03/26 14:07:25;;;;;;;;;;;;;;;;;;5129086;27;20287;-54
2023/03/26 14:09:51;;;;;;;;;;;;;;;;;;5131261;27;19926;-56
2023/03/26 14:12:16;;;;;;;;;;;;;;;;;;5127081;28;19911;-54
2023/03/26 14:14:43;;;;;;;;;;;;;;;;;;5129621;28;19919;-56
2023/03/26 14:17:10;;;;;;;;;;;;;;;;;;5124492;28;19916;-54
2023/03/26 14:19:36;;;;;;;;;;;;;;;;;;5130950;28;19919;-54
2023/03/26 14:22:02;;;;;;;;;;;;;;;;;;5124773;28;19911;-55
2023/03/26 14:24:28;;;;;;;;;;;;;;;;;;5128586;28;19911;-56
2023/03/26 14:26:54;;;;;;;;;;;;;;;;;;5128491;28;19922;-55
2023/03/26 14:29:22;;;;;;;;;;;;;;;;;;5129562;28;19971;-55
2023/03/26 14:31:48;;;;;;;;;;;;;;;;;;5121123;28;19928;-54
2023/03/26 14:34:14;;;;;;;;;;;;;;;;;;5126783;28;19957;-54
2023/03/26 14:36:40;;;;;;;;;;;;;;;;;;5127800;28;19999;-51
2023/03/26 14:39:06;;;;;;;;;;;;;;;;;;5126192;27;19912;-57
2023/03/26 14:41:32;;;;;;;;;;;;;;;;;;5133709;27;20375;-54
2023/03/26 14:43:58;;;;;;;;;;;;;;;;;;5126029;27;19985;-57
2023/03/26 14:46:25;;;;;;;;;;;;;;;;;;5127430;27;20249;-56
2023/03/26 14:48:52;;;;;;;;;;;;;;;;;;5129098;27;20367;-50
2023/03/26 14:51:18;;;;;;;;;;;;;;;;;;5133785;27;19920;-55
2023/03/26 14:53:43;;;;;;;;;;;;;;;;;;5128976;27;19912;-54
2023/03/26 14:56:09;;;;;;;;;;;;;;;;;;5133642;27;19916;-56
2023/03/26 14:58:35;;;;;;;;;;;;;;;;;;5125345;27;19963;-52
2023/03/26 15:01:01;;;;;;;;;;;;;;;;;;5113408;27;19915;-54
2023/03/26 15:03:28;;;;;;;;;;;;;;;;;;5132292;27;19911;-48
2023/03/26 15:05:55;;;;;;;;;;;;;;;;;;5115203;27;20275;-55
2023/03/26 15:08:21;;;;;;;;;;;;;;;;;;5126561;27;20010;-54
2023/03/26 15:10:48;;;;;;;;;;;;;;;;;;5134187;27;20486;-49
2023/03/26 15:13:14;;;;;;;;;;;;;;;;;;5131062;27;19912;-51
2023/03/26 15:15:40;;;;;;;;;;;;;;;;;;5115048;27;19922;-52
2023/03/26 15:18:06;;;;;;;;;;;;;;;;;;5131710;27;19918;-49
2023/03/26 15:20:32;;;;;;;;;;;;;;;;;;5133064;27;19911;-53
2023/03/26 15:22:58;;;;;;;;;;;;;;;;;;5126458;27;19976;-50
2023/03/26 15:25:24;;;;;;;;;;;;;;;;;;5130076;27;19911;-52
2023/03/26 15:27:50;;;;;;;;;;;;;;;;;;5125338;27;19919;-54
2023/03/26 15:30:16;;;;;;;;;;;;;;;;;;5132356;27;19920;-55
2023/03/26 15:32:42;;;;;;;;;;;;;;;;;;5130071;27;19922;-53
2023/03/26 15:35:08;;;;;;;;;;;;;;;;;;5125416;27;19911;-53
2023/03/26 15:37:34;;;;;;;;;;;;;;;;;;5130205;27;20010;-50
2023/03/26 15:40:10;;;;;;;;;;;;;;;;;;5132345;27;20435;-52
2023/03/26 15:42:36;;;;;;;;;;;;;;;;;;5132548;27;19911;-53
2023/03/26 15:45:02;;;;;;;;;;;;;;;;;;5132728;27;19918;-53
2023/03/26 15:47:28;;;;;;;;;;;;;;;;;;5126305;27;19911;-53
2023/03/26 15:49:53;;;;;;;;;;;;;;;;;;5117681;27;19915;-53
2023/03/26 15:52:19;;;;;;;;;;;;;;;;;;5123909;27;19915;-54
2023/03/26 15:54:45;;;;;;;;;;;;;;;;;;5113937;28;19911;-55
2023/03/26 15:57:15;;;;;;;;;;;;;;;;;;5116562;27;19955;-55
2023/03/26 15:59:41;;;;;;;;;;;;;;;;;;5133378;27;19968;-54
2023/03/26 16:02:08;;;;;;;;;;;;;;;;;;5125982;27;20273;-53
2023/03/26 16:04:34;;;;;;;;;;;;;;;;;;5116894;27;19915;-53
2023/03/26 16:07:02;;;;;;;;;;;;;;;;;;5116266;27;19919;-54
2023/03/26 16:09:28;;;;;;;;;;;;;;;;;;5125216;27;19980;-52
2023/03/26 16:11:54;;;;;;;;;;;;;;;;;;5113010;27;19962;-52
2023/03/26 16:14:20;;;;;;;;;;;;;;;;;;5121661;27;20445;-49
2023/03/26 16:16:46;;;;;;;;;;;;;;;;;;5122409;27;19934;-53
2023/03/26 16:19:12;;;;;;;;;;;;;;;;;;5114846;27;20268;-50
2023/03/26 16:21:38;;;;;;;;;;;;;;;;;;5122754;27;19912;-53
2023/03/26 16:24:03;;;;;;;;;;;;;;;;;;5121755;27;19916;-52
2023/03/26 16:26:29;;;;;;;;;;;;;;;;;;5120532;27;19919;-52
2023/03/26 16:28:55;;;;;;;;;;;;;;;;;;5120540;27;19912;-52
2023/03/26 16:31:24;;;;;;;;;;;;;;;;;;5128358;27;20005;-52
2023/03/26 16:33:50;;;;;;;;;;;;;;;;;;5125129;27;20300;-54
2023/03/26 16:36:17;;;;;;;;;;;;;;;;;;5119924;27;20455;-52
2023/03/26 16:38:44;;;;;;;;;;;;;;;;;;5120780;27;19946;-49